sensor_id;sensor_type;location;lat;lon;timestamp;pressure;altitude;pressure_sealevel;temperature;humidity
72308;BME280;60257;42.638;23.376;2023-08-30T00:00:15;93754.19;;;19.10;84.28
72308;BME280;60257;42.638;23.376;2023-08-30T00:02:45;93758.47;;;19.15;87.31
72308;BME280;60257;42.638;23.376;2023-08-30T00:05:11;93749.34;;;19.14;86.53
72308;BME280;60257;42.638;23.376;2023-08-30T00:07:36;93751.28;;;19.17;87.32
72308;BME280;60257;42.638;23.376;2023-08-30T00:10:02;93750.09;;;19.18;86.28
72308;BME280;60257;42.638;23.376;2023-08-30T00:12:29;93750.25;;;19.08;86.36
72308;BME280;60257;42.638;23.376;2023-08-30T00:14:55;93748.53;;;18.94;86.72
72308;BME280;60257;42.638;23.376;2023-08-30T00:17:20;93741.69;;;18.99;85.79
72308;BME280;60257;42.638;23.376;2023-08-30T00:19:46;93734.50;;;19.01;84.59
72308;BME280;60257;42.638;23.376;2023-08-30T00:22:13;93742.41;;;19.03;82.69
72308;BME280;60257;42.638;23.376;2023-08-30T00:24:39;93744.72;;;19.08;81.83
72308;BME280;60257;42.638;23.376;2023-08-30T00:27:04;93749.56;;;19.04;78.20
72308;BME280;60257;42.638;23.376;2023-08-30T00:29:30;93745.13;;;19.06;80.77
72308;BME280;60257;42.638;23.376;2023-08-30T00:31:56;93730.28;;;18.93;79.36
72308;BME280;60257;42.638;23.376;2023-08-30T00:34:21;93726.72;;;18.93;79.04
72308;BME280;60257;42.638;23.376;2023-08-30T00:36:47;93749.06;;;18.86;78.53
72308;BME280;60257;42.638;23.376;2023-08-30T00:39:12;93750.25;;;18.84;77.31
72308;BME280;60257;42.638;23.376;2023-08-30T00:41:38;93749.72;;;18.93;77.90
72308;BME280;60257;42.638;23.376;2023-08-30T00:44:04;93756.06;;;18.94;81.16
72308;BME280;60257;42.638;23.376;2023-08-30T00:46:30;93757.69;;;18.91;82.67
72308;BME280;60257;42.638;23.376;2023-08-30T00:48:57;93759.19;;;18.72;81.66
72308;BME280;60257;42.638;23.376;2023-08-30T00:51:23;93747.53;;;18.58;82.28
72308;BME280;60257;42.638;23.376;2023-08-30T00:53:49;93731.28;;;18.56;79.88
72308;BME280;60257;42.638;23.376;2023-08-30T00:56:15;93738.34;;;18.61;78.43
72308;BME280;60257;42.638;23.376;2023-08-30T00:58:41;93746.13;;;18.69;79.12
72308;BME280;60257;42.638;23.376;2023-08-30T01:01:07;93754.44;;;18.73;81.24
72308;BME280;60257;42.638;23.376;2023-08-30T01:03:34;93771.03;;;18.76;82.20
72308;BME280;60257;42.638;23.376;2023-08-30T01:06:01;93766.25;;;18.77;82.77
72308;BME280;60257;42.638;23.376;2023-08-30T01:08:27;93775.66;;;18.83;82.86
72308;BME280;60257;42.638;23.376;2023-08-30T01:11:02;93764.56;;;18.83;82.64
72308;BME280;60257;42.638;23.376;2023-08-30T01:13:30;93764.94;;;18.85;83.23
72308;BME280;60257;42.638;23.376;2023-08-30T01:15:57;93777.63;;;18.86;82.62
72308;BME280;60257;42.638;23.376;2023-08-30T01:18:26;93786.66;;;18.90;84.27
72308;BME280;60257;42.638;23.376;2023-08-30T01:20:55;93785.53;;;18.88;82.30
72308;BME280;60257;42.638;23.376;2023-08-30T01:23:54;93794.66;;;18.88;82.04
72308;BME280;60257;42.638;23.376;2023-08-30T01:26:44;93773.31;;;18.81;83.43
72308;BME280;60257;42.638;23.376;2023-08-30T01:29:11;93772.91;;;18.83;83.48
72308;BME280;60257;42.638;23.376;2023-08-30T01:31:38;93773.88;;;18.73;83.67
72308;BME280;60257;42.638;23.376;2023-08-30T01:34:06;93770.66;;;18.74;83.64
72308;BME280;60257;42.638;23.376;2023-08-30T01:36:32;93764.31;;;18.74;82.72
72308;BME280;60257;42.638;23.376;2023-08-30T01:38:58;93768.25;;;18.76;79.17
72308;BME280;60257;42.638;23.376;2023-08-30T01:41:29;93795.91;;;18.83;77.21
72308;BME280;60257;42.638;23.376;2023-08-30T01:43:55;93791.09;;;18.88;79.10
72308;BME280;60257;42.638;23.376;2023-08-30T01:46:22;93774.06;;;18.86;78.34
72308;BME280;60257;42.638;23.376;2023-08-30T01:48:49;93768.50;;;18.86;79.08
72308;BME280;60257;42.638;23.376;2023-08-30T01:51:15;93762.56;;;18.83;81.82
72308;BME280;60257;42.638;23.376;2023-08-30T01:53:43;93778.44;;;18.83;83.22
72308;BME280;60257;42.638;23.376;2023-08-30T01:56:09;93778.09;;;18.81;85.68
72308;BME280;60257;42.638;23.376;2023-08-30T01:58:34;93778.16;;;18.77;84.62
72308;BME280;60257;42.638;23.376;2023-08-30T02:01:00;93785.03;;;18.69;85.86
72308;BME280;60257;42.638;23.376;2023-08-30T02:03:25;93781.81;;;18.71;86.12
72308;BME280;60257;42.638;23.376;2023-08-30T02:08:41;93770.94;;;18.57;85.96
72308;BME280;60257;42.638;23.376;2023-08-30T02:11:18;93776.09;;;18.55;86.87
72308;BME280;60257;42.638;23.376;2023-08-30T02:13:45;93770.69;;;18.44;86.60
72308;BME280;60257;42.638;23.376;2023-08-30T02:16:13;93774.72;;;18.39;86.28
72308;BME280;60257;42.638;23.376;2023-08-30T02:18:39;93777.50;;;18.39;87.03
72308;BME280;60257;42.638;23.376;2023-08-30T02:21:05;93775.13;;;18.38;88.94
72308;BME280;60257;42.638;23.376;2023-08-30T02:23:31;93765.19;;;18.40;89.81
72308;BME280;60257;42.638;23.376;2023-08-30T02:25:56;93754.91;;;18.37;89.59
72308;BME280;60257;42.638;23.376;2023-08-30T02:28:21;93756.56;;;18.35;88.22
72308;BME280;60257;42.638;23.376;2023-08-30T02:30:47;93760.56;;;18.30;88.50
72308;BME280;60257;42.638;23.376;2023-08-30T02:33:13;93753.59;;;18.19;89.57
72308;BME280;60257;42.638;23.376;2023-08-30T02:35:39;93764.63;;;18.22;89.39
72308;BME280;60257;42.638;23.376;2023-08-30T02:38:04;93757.16;;;18.19;89.67
72308;BME280;60257;42.638;23.376;2023-08-30T02:40:30;93762.38;;;18.14;89.38
72308;BME280;60257;42.638;23.376;2023-08-30T02:42:57;93766.03;;;18.07;89.45
72308;BME280;60257;42.638;23.376;2023-08-30T02:45:22;93767.50;;;17.85;89.35
72308;BME280;60257;42.638;23.376;2023-08-30T02:47:48;93766.03;;;17.77;88.63
72308;BME280;60257;42.638;23.376;2023-08-30T02:50:13;93758.88;;;17.79;88.36
72308;BME280;60257;42.638;23.376;2023-08-30T02:52:39;93755.63;;;17.84;89.05
72308;BME280;60257;42.638;23.376;2023-08-30T02:55:05;93752.84;;;17.84;89.19
72308;BME280;60257;42.638;23.376;2023-08-30T02:57:31;93751.69;;;17.82;90.13
72308;BME280;60257;42.638;23.376;2023-08-30T02:59:56;93752.53;;;17.79;89.97
72308;BME280;60257;42.638;23.376;2023-08-30T03:02:22;93757.31;;;17.75;90.06
72308;BME280;60257;42.638;23.376;2023-08-30T03:04:47;93764.06;;;17.74;90.53
72308;BME280;60257;42.638;23.376;2023-08-30T03:07:12;93762.13;;;17.71;91.18
72308;BME280;60257;42.638;23.376;2023-08-30T03:09:38;93764.53;;;17.68;91.81
72308;BME280;60257;42.638;23.376;2023-08-30T03:12:04;93756.28;;;17.58;92.50
72308;BME280;60257;42.638;23.376;2023-08-30T03:14:30;93765.78;;;17.64;92.16
72308;BME280;60257;42.638;23.376;2023-08-30T03:16:55;93762.28;;;17.56;92.08
72308;BME280;60257;42.638;23.376;2023-08-30T03:19:20;93769.00;;;17.55;91.57
72308;BME280;60257;42.638;23.376;2023-08-30T03:21:46;93765.84;;;17.53;92.07
72308;BME280;60257;42.638;23.376;2023-08-30T03:24:11;93767.47;;;17.51;92.11
72308;BME280;60257;42.638;23.376;2023-08-30T03:26:39;93762.78;;;17.44;92.79
72308;BME280;60257;42.638;23.376;2023-08-30T03:29:06;93760.41;;;17.43;93.02
72308;BME280;60257;42.638;23.376;2023-08-30T03:31:31;93764.44;;;17.38;91.25
72308;BME280;60257;42.638;23.376;2023-08-30T03:33:57;93755.09;;;17.21;91.92
72308;BME280;60257;42.638;23.376;2023-08-30T03:36:22;93750.75;;;17.20;92.11
72308;BME280;60257;42.638;23.376;2023-08-30T03:38:48;93747.13;;;17.27;91.71
72308;BME280;60257;42.638;23.376;2023-08-30T03:41:14;93737.25;;;17.26;93.16
72308;BME280;60257;42.638;23.376;2023-08-30T03:43:39;93735.69;;;17.25;93.24
72308;BME280;60257;42.638;23.376;2023-08-30T03:46:05;93741.59;;;17.27;94.17
72308;BME280;60257;42.638;23.376;2023-08-30T03:48:31;93741.97;;;17.29;93.94
72308;BME280;60257;42.638;23.376;2023-08-30T03:50:58;93737.25;;;17.26;95.28
72308;BME280;60257;42.638;23.376;2023-08-30T03:53:23;93746.78;;;17.25;93.99
72308;BME280;60257;42.638;23.376;2023-08-30T03:55:50;93743.22;;;17.24;92.37
72308;BME280;60257;42.638;23.376;2023-08-30T03:58:17;93757.06;;;17.24;91.68
72308;BME280;60257;42.638;23.376;2023-08-30T04:00:43;93748.75;;;17.24;91.92
72308;BME280;60257;42.638;23.376;2023-08-30T04:03:09;93754.69;;;17.23;91.84
72308;BME280;60257;42.638;23.376;2023-08-30T04:05:36;93773.72;;;17.21;90.88
72308;BME280;60257;42.638;23.376;2023-08-30T04:08:03;93788.28;;;17.28;91.63
72308;BME280;60257;42.638;23.376;2023-08-30T04:10:29;93777.19;;;17.32;92.24
72308;BME280;60257;42.638;23.376;2023-08-30T04:12:54;93768.03;;;17.35;92.89
72308;BME280;60257;42.638;23.376;2023-08-30T04:15:20;93765.16;;;17.46;92.32
72308;BME280;60257;42.638;23.376;2023-08-30T04:17:45;93773.78;;;17.55;91.99
72308;BME280;60257;42.638;23.376;2023-08-30T04:20:11;93778.81;;;17.67;90.69
72308;BME280;60257;42.638;23.376;2023-08-30T04:22:37;93784.16;;;17.85;90.55
72308;BME280;60257;42.638;23.376;2023-08-30T04:25:03;93791.06;;;18.03;89.91
72308;BME280;60257;42.638;23.376;2023-08-30T04:27:29;93787.25;;;18.21;87.46
72308;BME280;60257;42.638;23.376;2023-08-30T04:29:55;93791.00;;;18.37;86.61
72308;BME280;60257;42.638;23.376;2023-08-30T04:32:20;93802.28;;;18.54;84.42
72308;BME280;60257;42.638;23.376;2023-08-30T04:34:46;93809.22;;;18.69;84.10
72308;BME280;60257;42.638;23.376;2023-08-30T04:37:11;93809.88;;;18.80;81.22
72308;BME280;60257;42.638;23.376;2023-08-30T04:39:37;93817.41;;;18.79;82.05
72308;BME280;60257;42.638;23.376;2023-08-30T04:42:02;93822.84;;;18.87;80.95
72308;BME280;60257;42.638;23.376;2023-08-30T04:44:28;93825.94;;;18.92;82.10
72308;BME280;60257;42.638;23.376;2023-08-30T04:46:54;93830.06;;;19.07;81.17
72308;BME280;60257;42.638;23.376;2023-08-30T04:49:21;93824.72;;;19.20;80.65
72308;BME280;60257;42.638;23.376;2023-08-30T04:51:47;93830.63;;;19.22;79.88
72308;BME280;60257;42.638;23.376;2023-08-30T04:54:12;93823.56;;;19.17;79.24
72308;BME280;60257;42.638;23.376;2023-08-30T04:56:39;93825.59;;;19.13;79.55
72308;BME280;60257;42.638;23.376;2023-08-30T04:59:04;93824.47;;;19.11;79.19
72308;BME280;60257;42.638;23.376;2023-08-30T05:01:30;93830.06;;;19.07;80.65
72308;BME280;60257;42.638;23.376;2023-08-30T05:03:56;93828.19;;;19.01;81.01
72308;BME280;60257;42.638;23.376;2023-08-30T05:06:21;93824.72;;;18.93;80.23
72308;BME280;60257;42.638;23.376;2023-08-30T05:08:47;93828.31;;;18.94;81.20
72308;BME280;60257;42.638;23.376;2023-08-30T05:11:12;93835.06;;;18.93;82.03
72308;BME280;60257;42.638;23.376;2023-08-30T05:13:38;93838.63;;;18.93;82.21
72308;BME280;60257;42.638;23.376;2023-08-30T05:16:03;93833.56;;;18.88;83.71
72308;BME280;60257;42.638;23.376;2023-08-30T05:18:29;93836.34;;;18.88;82.35
72308;BME280;60257;42.638;23.376;2023-08-30T05:20:54;93832.00;;;18.83;81.64
72308;BME280;60257;42.638;23.376;2023-08-30T05:23:20;93824.88;;;18.82;80.84
72308;BME280;60257;42.638;23.376;2023-08-30T05:25:45;93831.22;;;18.83;79.79
72308;BME280;60257;42.638;23.376;2023-08-30T05:28:12;93841.63;;;18.79;80.82
72308;BME280;60257;42.638;23.376;2023-08-30T05:30:41;93842.19;;;18.67;81.38
72308;BME280;60257;42.638;23.376;2023-08-30T05:33:13;93846.94;;;18.66;81.45
72308;BME280;60257;42.638;23.376;2023-08-30T05:35:38;93843.31;;;18.73;82.36
72308;BME280;60257;42.638;23.376;2023-08-30T05:38:04;93845.97;;;18.80;82.08
72308;BME280;60257;42.638;23.376;2023-08-30T05:40:29;93849.78;;;18.90;81.03
72308;BME280;60257;42.638;23.376;2023-08-30T05:42:55;93849.63;;;19.00;80.70
72308;BME280;60257;42.638;23.376;2023-08-30T05:45:20;93836.81;;;19.06;79.27
72308;BME280;60257;42.638;23.376;2023-08-30T05:47:46;93835.16;;;19.12;78.99
72308;BME280;60257;42.638;23.376;2023-08-30T05:50:11;93843.44;;;19.16;78.70
72308;BME280;60257;42.638;23.376;2023-08-30T05:52:37;93844.88;;;19.24;78.30
72308;BME280;60257;42.638;23.376;2023-08-30T05:55:07;93843.50;;;19.36;79.38
72308;BME280;60257;42.638;23.376;2023-08-30T05:57:33;93827.84;;;19.45;78.52
72308;BME280;60257;42.638;23.376;2023-08-30T05:59:59;93832.75;;;19.61;77.28
72308;BME280;60257;42.638;23.376;2023-08-30T06:02:25;93834.22;;;19.69;74.84
72308;BME280;60257;42.638;23.376;2023-08-30T06:04:51;93842.78;;;19.78;73.49
72308;BME280;60257;42.638;23.376;2023-08-30T06:07:16;93838.94;;;19.92;74.72
72308;BME280;60257;42.638;23.376;2023-08-30T06:09:42;93838.75;;;20.03;76.60
72308;BME280;60257;42.638;23.376;2023-08-30T06:12:08;93837.31;;;20.14;76.34
72308;BME280;60257;42.638;23.376;2023-08-30T06:14:33;93836.19;;;20.31;74.94
72308;BME280;60257;42.638;23.376;2023-08-30T06:16:59;93835.59;;;20.44;73.44
72308;BME280;60257;42.638;23.376;2023-08-30T06:19:24;93839.41;;;20.50;71.34
72308;BME280;60257;42.638;23.376;2023-08-30T06:21:50;93838.47;;;20.56;70.64
72308;BME280;60257;42.638;23.376;2023-08-30T06:24:15;93835.59;;;20.60;70.15
72308;BME280;60257;42.638;23.376;2023-08-30T06:26:41;93836.13;;;20.55;68.22
72308;BME280;60257;42.638;23.376;2023-08-30T06:29:06;93839.19;;;20.60;68.42
72308;BME280;60257;42.638;23.376;2023-08-30T06:31:32;93838.31;;;20.63;68.13
72308;BME280;60257;42.638;23.376;2023-08-30T06:33:57;93846.56;;;20.51;66.05
72308;BME280;60257;42.638;23.376;2023-08-30T06:36:23;93851.66;;;20.36;66.93
72308;BME280;60257;42.638;23.376;2023-08-30T06:38:49;93849.25;;;20.54;66.34
72308;BME280;60257;42.638;23.376;2023-08-30T06:41:14;93838.38;;;20.60;68.84
72308;BME280;60257;42.638;23.376;2023-08-30T06:43:40;93844.38;;;20.78;68.37
72308;BME280;60257;42.638;23.376;2023-08-30T06:46:05;93843.22;;;20.75;64.08
72308;BME280;60257;42.638;23.376;2023-08-30T06:48:31;93845.78;;;20.86;64.38
72308;BME280;60257;42.638;23.376;2023-08-30T06:50:59;93843.03;;;21.02;64.12
72308;BME280;60257;42.638;23.376;2023-08-30T06:53:26;93845.22;;;21.11;62.17
72308;BME280;60257;42.638;23.376;2023-08-30T06:56:02;93844.66;;;21.20;62.51
72308;BME280;60257;42.638;23.376;2023-08-30T06:58:27;93838.38;;;21.32;63.54
72308;BME280;60257;42.638;23.376;2023-08-30T07:00:53;93836.53;;;21.41;64.12
72308;BME280;60257;42.638;23.376;2023-08-30T07:03:18;93847.09;;;21.50;61.06
72308;BME280;60257;42.638;23.376;2023-08-30T07:05:44;93847.88;;;21.67;59.69
72308;BME280;60257;42.638;23.376;2023-08-30T07:08:10;93844.72;;;21.81;59.19
72308;BME280;60257;42.638;23.376;2023-08-30T07:10:35;93847.31;;;21.88;58.95
72308;BME280;60257;42.638;23.376;2023-08-30T07:13:01;93836.34;;;21.97;59.85
72308;BME280;60257;42.638;23.376;2023-08-30T07:15:26;93846.91;;;21.73;57.82
72308;BME280;60257;42.638;23.376;2023-08-30T07:17:52;93843.41;;;21.53;59.13
72308;BME280;60257;42.638;23.376;2023-08-30T07:20:17;93847.06;;;21.18;60.14
72308;BME280;60257;42.638;23.376;2023-08-30T07:22:43;93844.94;;;20.89;59.95
72308;BME280;60257;42.638;23.376;2023-08-30T07:25:08;93841.63;;;20.94;59.67
72308;BME280;60257;42.638;23.376;2023-08-30T07:27:36;93838.66;;;21.21;59.62
72308;BME280;60257;42.638;23.376;2023-08-30T07:30:01;93840.91;;;21.26;57.83
72308;BME280;60257;42.638;23.376;2023-08-30T07:32:27;93842.56;;;21.40;57.40
72308;BME280;60257;42.638;23.376;2023-08-30T07:34:52;93841.88;;;21.36;56.97
72308;BME280;60257;42.638;23.376;2023-08-30T07:37:19;93849.59;;;21.61;57.20
72308;BME280;60257;42.638;23.376;2023-08-30T07:39:45;93835.19;;;21.78;57.74
72308;BME280;60257;42.638;23.376;2023-08-30T07:42:11;93844.94;;;22.03;58.17
72308;BME280;60257;42.638;23.376;2023-08-30T07:44:36;93835.97;;;22.24;58.18
72308;BME280;60257;42.638;23.376;2023-08-30T07:47:01;93830.72;;;22.13;53.51
72308;BME280;60257;42.638;23.376;2023-08-30T07:49:28;93833.53;;;22.26;53.43
72308;BME280;60257;42.638;23.376;2023-08-30T07:51:53;93838.44;;;22.22;53.25
72308;BME280;60257;42.638;23.376;2023-08-30T07:54:19;93842.00;;;22.22;52.81
72308;BME280;60257;42.638;23.376;2023-08-30T07:56:44;93841.81;;;22.30;53.10
72308;BME280;60257;42.638;23.376;2023-08-30T07:59:09;93842.41;;;22.37;53.36
72308;BME280;60257;42.638;23.376;2023-08-30T08:01:35;93836.50;;;22.48;53.14
72308;BME280;60257;42.638;23.376;2023-08-30T08:04:01;93844.03;;;22.63;52.58
72308;BME280;60257;42.638;23.376;2023-08-30T08:06:26;93841.81;;;22.71;51.59
72308;BME280;60257;42.638;23.376;2023-08-30T08:08:52;93836.72;;;22.82;50.76
72308;BME280;60257;42.638;23.376;2023-08-30T08:11:17;93840.44;;;22.63;50.13
72308;BME280;60257;42.638;23.376;2023-08-30T08:13:43;93836.50;;;22.89;50.56
72308;BME280;60257;42.638;23.376;2023-08-30T08:16:09;93839.31;;;23.02;50.22
72308;BME280;60257;42.638;23.376;2023-08-30T08:18:34;93835.63;;;23.18;51.45
72308;BME280;60257;42.638;23.376;2023-08-30T08:20:59;93846.91;;;23.01;51.19
72308;BME280;60257;42.638;23.376;2023-08-30T08:23:25;93846.69;;;22.54;53.10
72308;BME280;60257;42.638;23.376;2023-08-30T08:25:57;93847.69;;;23.02;52.07
72308;BME280;60257;42.638;23.376;2023-08-30T08:28:22;93844.09;;;23.01;51.71
72308;BME280;60257;42.638;23.376;2023-08-30T08:30:48;93830.56;;;23.25;51.65
72308;BME280;60257;42.638;23.376;2023-08-30T08:33:16;93839.53;;;23.46;51.35
72308;BME280;60257;42.638;23.376;2023-08-30T08:35:43;93836.06;;;23.41;52.62
72308;BME280;60257;42.638;23.376;2023-08-30T08:38:09;93836.84;;;23.42;51.98
72308;BME280;60257;42.638;23.376;2023-08-30T08:40:38;93843.47;;;23.61;51.60
72308;BME280;60257;42.638;23.376;2023-08-30T08:43:06;93840.22;;;23.37;49.68
72308;BME280;60257;42.638;23.376;2023-08-30T08:45:35;93839.78;;;23.51;50.68
72308;BME280;60257;42.638;23.376;2023-08-30T08:48:05;93839.41;;;23.62;51.61
72308;BME280;60257;42.638;23.376;2023-08-30T08:50:32;93839.25;;;23.78;49.78
72308;BME280;60257;42.638;23.376;2023-08-30T08:52:59;93842.50;;;23.89;49.51
72308;BME280;60257;42.638;23.376;2023-08-30T08:55:26;93833.41;;;23.98;48.68
72308;BME280;60257;42.638;23.376;2023-08-30T08:57:53;93837.72;;;24.11;49.25
72308;BME280;60257;42.638;23.376;2023-08-30T09:00:19;93832.75;;;24.28;48.36
72308;BME280;60257;42.638;23.376;2023-08-30T09:02:45;93832.94;;;24.34;47.78
72308;BME280;60257;42.638;23.376;2023-08-30T09:05:11;93830.66;;;24.41;46.65
72308;BME280;60257;42.638;23.376;2023-08-30T09:07:37;93830.91;;;24.34;45.23
72308;BME280;60257;42.638;23.376;2023-08-30T09:10:03;93836.72;;;24.40;44.96
72308;BME280;60257;42.638;23.376;2023-08-30T09:12:33;93842.91;;;24.35;45.19
72308;BME280;60257;42.638;23.376;2023-08-30T09:14:59;93833.13;;;24.39;45.63
72308;BME280;60257;42.638;23.376;2023-08-30T09:17:35;93840.44;;;24.37;46.06
72308;BME280;60257;42.638;23.376;2023-08-30T09:20:10;93834.38;;;24.04;46.50
72308;BME280;60257;42.638;23.376;2023-08-30T09:22:40;93829.66;;;24.13;46.33
72308;BME280;60257;42.638;23.376;2023-08-30T09:25:10;93827.47;;;24.30;45.66
72308;BME280;60257;42.638;23.376;2023-08-30T09:27:36;93829.91;;;24.06;46.73
72308;BME280;60257;42.638;23.376;2023-08-30T09:30:05;93839.50;;;23.84;46.79
72308;BME280;60257;42.638;23.376;2023-08-30T09:32:38;93838.81;;;23.79;47.76
72308;BME280;60257;42.638;23.376;2023-08-30T09:35:04;93833.06;;;23.96;48.11
72308;BME280;60257;42.638;23.376;2023-08-30T09:37:30;93835.94;;;24.05;48.45
72308;BME280;60257;42.638;23.376;2023-08-30T09:39:56;93839.84;;;24.20;48.48
72308;BME280;60257;42.638;23.376;2023-08-30T09:42:22;93841.69;;;24.36;47.60
72308;BME280;60257;42.638;23.376;2023-08-30T09:44:47;93831.63;;;24.47;48.21
72308;BME280;60257;42.638;23.376;2023-08-30T09:47:13;93825.25;;;24.69;46.78
72308;BME280;60257;42.638;23.376;2023-08-30T09:49:43;93821.38;;;24.97;45.29
72308;BME280;60257;42.638;23.376;2023-08-30T09:52:09;93829.03;;;24.75;44.96
72308;BME280;60257;42.638;23.376;2023-08-30T09:54:35;93816.38;;;24.70;44.97
72308;BME280;60257;42.638;23.376;2023-08-30T09:57:04;93824.84;;;24.79;44.84
72308;BME280;60257;42.638;23.376;2023-08-30T09:59:30;93819.44;;;24.85;45.54
72308;BME280;60257;42.638;23.376;2023-08-30T10:01:57;93816.47;;;24.88;45.99
72308;BME280;60257;42.638;23.376;2023-08-30T10:04:23;93816.41;;;25.01;44.41
72308;BME280;60257;42.638;23.376;2023-08-30T10:06:49;93804.16;;;25.08;44.93
72308;BME280;60257;42.638;23.376;2023-08-30T10:09:23;93802.94;;;25.18;44.94
72308;BME280;60257;42.638;23.376;2023-08-30T10:11:50;93799.88;;;25.34;44.19
72308;BME280;60257;42.638;23.376;2023-08-30T10:14:16;93798.47;;;25.29;44.69
72308;BME280;60257;42.638;23.376;2023-08-30T10:16:49;93790.56;;;25.55;43.76
72308;BME280;60257;42.638;23.376;2023-08-30T10:21:53;93796.91;;;25.78;45.14
72308;BME280;60257;42.638;23.376;2023-08-30T10:24:24;93795.34;;;25.95;43.39
72308;BME280;60257;42.638;23.376;2023-08-30T10:26:52;93789.13;;;26.00;43.92
72308;BME280;60257;42.638;23.376;2023-08-30T10:29:19;93799.72;;;26.05;42.37
72308;BME280;60257;42.638;23.376;2023-08-30T10:31:46;93796.16;;;26.14;42.70
72308;BME280;60257;42.638;23.376;2023-08-30T10:34:14;93793.19;;;26.44;41.87
72308;BME280;60257;42.638;23.376;2023-08-30T10:36:41;93789.88;;;26.64;41.43
72308;BME280;60257;42.638;23.376;2023-08-30T10:39:12;93790.78;;;26.79;40.46
72308;BME280;60257;42.638;23.376;2023-08-30T10:41:39;93791.78;;;26.49;40.58
72308;BME280;60257;42.638;23.376;2023-08-30T10:44:19;93786.44;;;26.69;40.61
72308;BME280;60257;42.638;23.376;2023-08-30T10:46:54;93776.88;;;26.94;40.24
72308;BME280;60257;42.638;23.376;2023-08-30T10:49:20;93793.56;;;26.89;39.77
72308;BME280;60257;42.638;23.376;2023-08-30T10:51:54;93785.00;;;26.92;39.71
72308;BME280;60257;42.638;23.376;2023-08-30T10:54:20;93785.94;;;26.98;39.92
72308;BME280;60257;42.638;23.376;2023-08-30T10:56:47;93792.16;;;27.02;41.24
72308;BME280;60257;42.638;23.376;2023-08-30T10:59:17;93785.78;;;26.83;40.92
72308;BME280;60257;42.638;23.376;2023-08-30T11:01:45;93791.69;;;26.95;40.04
72308;BME280;60257;42.638;23.376;2023-08-30T11:04:12;93784.81;;;26.96;39.73
72308;BME280;60257;42.638;23.376;2023-08-30T11:06:39;93784.22;;;26.92;39.70
72308;BME280;60257;42.638;23.376;2023-08-30T11:09:05;93781.41;;;26.92;39.10
72308;BME280;60257;42.638;23.376;2023-08-30T11:11:31;93778.25;;;26.99;40.32
72308;BME280;60257;42.638;23.376;2023-08-30T11:14:09;93778.56;;;27.10;39.03
72308;BME280;60257;42.638;23.376;2023-08-30T11:16:36;93784.94;;;27.10;38.94
72308;BME280;60257;42.638;23.376;2023-08-30T11:19:05;93768.91;;;26.93;41.01
72308;BME280;60257;42.638;23.376;2023-08-30T11:21:32;93769.00;;;27.07;41.36
72308;BME280;60257;42.638;23.376;2023-08-30T11:23:58;93766.31;;;27.13;40.16
72308;BME280;60257;42.638;23.376;2023-08-30T11:26:24;93763.16;;;27.20;39.47
72308;BME280;60257;42.638;23.376;2023-08-30T11:28:49;93753.47;;;26.70;40.94
72308;BME280;60257;42.638;23.376;2023-08-30T11:31:25;93754.16;;;27.07;39.99
72308;BME280;60257;42.638;23.376;2023-08-30T11:33:56;93753.81;;;27.14;38.20
72308;BME280;60257;42.638;23.376;2023-08-30T11:36:23;93753.69;;;27.08;37.90
72308;BME280;60257;42.638;23.376;2023-08-30T11:38:50;93749.13;;;26.60;38.56
72308;BME280;60257;42.638;23.376;2023-08-30T11:41:16;93743.38;;;26.45;39.12
72308;BME280;60257;42.638;23.376;2023-08-30T11:43:43;93742.66;;;26.87;38.53
72308;BME280;60257;42.638;23.376;2023-08-30T11:46:09;93741.72;;;26.71;39.28
72308;BME280;60257;42.638;23.376;2023-08-30T11:48:35;93739.69;;;26.72;39.75
72308;BME280;60257;42.638;23.376;2023-08-30T11:51:01;93732.88;;;27.15;37.85
72308;BME280;60257;42.638;23.376;2023-08-30T11:53:27;93723.41;;;27.27;38.55
72308;BME280;60257;42.638;23.376;2023-08-30T11:55:53;93727.56;;;27.41;37.43
72308;BME280;60257;42.638;23.376;2023-08-30T11:58:18;93718.34;;;27.40;38.00
72308;BME280;60257;42.638;23.376;2023-08-30T12:00:45;93722.19;;;27.52;37.98
72308;BME280;60257;42.638;23.376;2023-08-30T12:03:14;93708.53;;;27.60;36.19
72308;BME280;60257;42.638;23.376;2023-08-30T12:05:46;93715.56;;;27.64;36.52
72308;BME280;60257;42.638;23.376;2023-08-30T12:08:25;93716.88;;;27.54;37.46
72308;BME280;60257;42.638;23.376;2023-08-30T12:10:52;93710.56;;;27.59;36.70
72308;BME280;60257;42.638;23.376;2023-08-30T12:15:54;93711.66;;;27.85;35.52
72308;BME280;60257;42.638;23.376;2023-08-30T12:18:24;93708.06;;;27.85;35.98
72308;BME280;60257;42.638;23.376;2023-08-30T12:20:58;93705.94;;;27.94;35.54
72308;BME280;60257;42.638;23.376;2023-08-30T12:23:26;93705.19;;;28.09;35.15
72308;BME280;60257;42.638;23.376;2023-08-30T12:26:03;93701.25;;;28.15;34.77
72308;BME280;60257;42.638;23.376;2023-08-30T12:28:30;93705.38;;;28.05;34.53
72308;BME280;60257;42.638;23.376;2023-08-30T12:30:57;93686.13;;;28.04;34.42
72308;BME280;60257;42.638;23.376;2023-08-30T12:33:22;93691.28;;;28.05;35.75
72308;BME280;60257;42.638;23.376;2023-08-30T12:35:50;93694.16;;;27.96;35.01
72308;BME280;60257;42.638;23.376;2023-08-30T12:38:16;93699.69;;;27.19;35.20
72308;BME280;60257;42.638;23.376;2023-08-30T12:40:46;93690.53;;;27.09;35.21
72308;BME280;60257;42.638;23.376;2023-08-30T12:43:16;93689.22;;;27.43;35.46
72308;BME280;60257;42.638;23.376;2023-08-30T12:45:43;93685.81;;;27.15;35.53
72308;BME280;60257;42.638;23.376;2023-08-30T12:48:10;93676.28;;;27.37;35.53
72308;BME280;60257;42.638;23.376;2023-08-30T12:50:37;93677.78;;;27.47;35.06
72308;BME280;60257;42.638;23.376;2023-08-30T12:53:06;93677.06;;;27.37;35.63
72308;BME280;60257;42.638;23.376;2023-08-30T12:55:31;93667.59;;;27.49;34.63